This is the latest recevied weather packets stored in our database for station/object N5VIS. If no packets are shown the sender has not sent any weather packets the latest 10 day(s).
| Time | Temp. | Humidity | Pressure | Rain* | Wind** | Luminosity | Snow |
|---|---|---|---|---|---|---|---|
| 1777150250 | 26.11° C | 72% | 1009.7 hPa | 0 mm | - | - | - |
| 1777149949 | 25.56° C | 75% | 1009.6 hPa | 0 mm | - | - | - |
| 1777149644 | 25° C | 76% | 1009.8 hPa | 0 mm | - | - | - |
| 1777149341 | 24.44° C | 79% | 1009.9 hPa | 0 mm | - | - | - |
| 1777149037 | 24.44° C | 79% | 1009.9 hPa | 0 mm | - | - | - |
| 1777148732 | 23.33° C | 80% | 1009.8 hPa | 0 mm | - | - | - |
| 1777148428 | 23.89° C | 80% | 1009.9 hPa | 0 mm | - | - | - |
| 1777148125 | 24.44° C | 78% | 1010 hPa | 0 mm | - | - | - |
| 1777147820 | 23.89° C | 79% | 1010 hPa | 0 mm | - | - | - |
| 1777147516 | 24.44° C | 79% | 1010 hPa | 0 mm | - | - | - |
| 1777147212 | 24.44° C | 79% | 1010.1 hPa | 0 mm | - | - | - |
| 1777146908 | 24.44° C | 78% | 1010.3 hPa | 0 mm | - | - | - |
| 1777146605 | 24.44° C | 78% | 1010.2 hPa | 0 mm | - | - | - |
| 1777146300 | 24.44° C | 78% | 1010.2 hPa | 0 mm | - | - | - |
| 1777145996 | 24.44° C | 77% | 1010.1 hPa | 0 mm | - | - | - |
| 1777145693 | 24.44° C | 77% | 1010.3 hPa | 0 mm | - | - | - |
| 1777145389 | 25° C | 77% | 1010.1 hPa | 0 mm | - | - | - |
| 1777145084 | 24.44° C | 77% | 1010.5 hPa | 0 mm | - | - | - |
| 1777144778 | 24.44° C | 79% | 1010.5 hPa | 0 mm | - | - | - |
| 1777144477 | 24.44° C | 80% | 1010.3 hPa | 0 mm | - | - | - |
| 1777144174 | 23.89° C | 80% | 1010.3 hPa | 0 mm | - | - | - |
| 1777143870 | 23.89° C | 80% | 1010.5 hPa | 0 mm | - | - | - |
| 1777143567 | 23.89° C | 81% | 1010.2 hPa | 0 mm | - | - | - |
| 1777143262 | 23.89° C | 82% | 1010.3 hPa | 0 mm | - | - | - |
| 1777142959 | 23.89° C | 81% | 1010.1 hPa | 0 mm | - | - | - |
* Rain latest hour (hover to see other rain measurements)
** Current wind speed in m/s (hover to see current wind gust speed)